Time;durP1;ratioP1;P1;durP2;ratioP2;P2;SDS_P1;SDS_P2;PMS_P1;PMS_P2;Temp;Humidity;BMP_temperature;BMP_pressure;BME280_temperature;BME280_humidity;BME280_pressure;Samples;Min_cycle;Max_cycle;Signal;HPM_P1;HPM_P2
2022/11/22 10:56:05;;;;;;;6.90;1.50;;;;;;;5.75;77.77;94978.50;2084104;28;20587;-60
2022/11/22 10:57:13;;;;;;;4.63;1.30;;;;;;;5.83;78.60;94977.16;2083795;28;20200;-60
2022/11/22 10:58:23;;;;;;;5.82;1.20;;;;;;;5.72;77.36;94975.13;2076371;28;20537;-61
2022/11/22 10:59:30;;;;;;;3.15;1.25;;;;;;;5.79;76.70;94972.22;2077261;28;20701;-60
2022/11/22 11:00:37;;;;;;;7.82;1.20;;;;;;;5.83;76.04;94966.81;2072905;28;20206;-63
2022/11/22 11:02:32;;;;;;;6.15;1.73;;;;;;;5.83;77.02;94968.56;2074167;28;20198;-63
2022/11/22 11:03:38;;;;;;;11.07;2.65;;;;;;;5.80;76.32;94972.16;2072620;28;20317;-64
2022/11/22 11:04:41;;;;;;;8.88;1.73;;;;;;;5.71;76.25;94954.50;2074460;28;20223;-63
2022/11/22 11:06:01;;;;;;;5.78;1.50;;;;;;;5.94;76.13;94968.00;2068202;28;20301;-64
2022/11/22 11:07:24;;;;;;;10.38;2.00;;;;;;;5.98;76.96;94970.38;2073065;28;20601;-61
2022/11/22 11:08:33;;;;;;;6.38;1.25;;;;;;;5.98;75.83;94970.38;2072501;28;20256;-61
2022/11/22 11:10:04;;;;;;;4.00;1.10;;;;;;;5.96;76.09;94964.41;2073649;28;20301;-61
2022/11/22 11:11:25;;;;;;;8.00;2.03;;;;;;;6.01;76.16;94969.38;2072371;28;20282;-60
2022/11/22 11:12:39;;;;;;;10.93;1.67;;;;;;;5.81;74.89;94967.81;2072935;28;20280;-60
2022/11/22 11:13:49;;;;;;;6.63;1.92;;;;;;;5.84;75.40;94959.88;2072306;28;20802;-61
2022/11/22 11:14:56;;;;;;;7.72;1.33;;;;;;;5.76;74.92;94960.28;2079084;28;20213;-60
2022/11/22 11:16:00;;;;;;;4.90;1.30;;;;;;;5.79;75.41;94961.84;2080455;28;20300;-61
2022/11/22 11:17:04;;;;;;;7.00;1.42;;;;;;;5.91;75.87;94963.81;2071141;28;20206;-61
2022/11/22 11:18:29;;;;;;;8.05;1.95;;;;;;;5.93;75.77;94953.38;2073744;28;20224;-61
2022/11/22 11:19:37;;;;;;;5.72;2.00;;;;;;;6.05;75.55;94958.75;2070732;28;20271;-61
2022/11/22 11:20:41;;;;;;;4.57;1.30;;;;;;;6.18;75.75;94960.69;2069268;28;20213;-62
2022/11/22 11:21:43;;;;;;;9.23;1.60;;;;;;;6.19;75.88;94960.59;2068677;28;20195;-62
2022/11/22 11:22:44;;;;;;;4.60;1.20;;;;;;;6.04;73.68;94954.50;2069202;28;20199;-62
2022/11/22 11:24:12;;;;;;;14.60;2.85;;;;;;;5.84;74.40;94908.06;2071356;28;20258;-61
2022/11/22 11:25:28;;;;;;;20.05;1.73;;;;;;;6.11;74.00;94956.78;2072940;28;20800;-62
2022/11/22 11:26:34;;;;;;;10.65;1.70;;;;;;;6.12;73.75;94958.44;2073304;28;20852;-61
2022/11/22 11:27:41;;;;;;;4.97;1.10;;;;;;;6.16;74.09;94960.78;2070196;28;20237;-62
2022/11/22 11:28:42;;;;;;;8.02;1.30;;;;;;;6.06;73.91;94946.66;2075256;28;20285;-62
2022/11/22 11:29:46;;;;;;;7.00;1.80;;;;;;;6.17;73.95;94954.69;2076252;28;20320;-62
2022/11/22 11:31:00;;;;;;;4.82;1.42;;;;;;;6.27;75.04;94960.22;2074468;28;20198;-62
2022/11/22 11:32:13;;;;;;;6.95;1.52;;;;;;;6.12;75.02;94938.53;2075810;28;20843;-61
2022/11/22 11:33:29;;;;;;;13.15;2.38;;;;;;;6.20;74.89;94959.69;2070240;28;20198;-61
2022/11/22 11:34:32;;;;;;;9.57;1.48;;;;;;;6.14;74.71;94941.88;2071600;28;20353;-62
2022/11/22 11:35:33;;;;;;;3.92;1.00;;;;;;;6.16;74.83;94952.19;2071242;28;20213;-62
2022/11/22 11:36:36;;;;;;;8.05;1.90;;;;;;;6.10;74.64;94945.56;2072666;28;20249;-62
2022/11/22 11:37:38;;;;;;;11.32;2.58;;;;;;;6.19;75.61;94946.81;2071111;28;20236;-61
2022/11/22 12:15:06;;;;;;;11.68;2.00;;;;;;;6.22;74.55;94910.34;2085652;28;20549;-62
2022/11/22 12:16:21;;;;;;;7.53;1.55;;;;;;;6.17;74.67;94900.25;2084252;28;20205;-63
2022/11/22 12:17:26;;;;;;;6.95;1.40;;;;;;;6.19;74.49;94894.97;2082552;28;20680;-63
2022/11/22 12:18:38;;;;;;;8.93;1.88;;;;;;;6.15;74.18;94902.09;2082978;28;20928;-62
2022/11/22 12:20:05;;;;;;;5.85;1.77;;;;;;;6.10;75.24;94901.50;2075429;28;20226;-63
2022/11/22 12:21:25;;;;;;;19.90;2.97;;;;;;;6.03;75.07;94895.81;2073190;28;20658;-62
2022/11/22 12:22:57;;;;;;;6.15;1.20;;;;;;;5.98;74.59;94895.25;2073911;28;20205;-62
2022/11/22 12:24:11;;;;;;;9.27;1.27;;;;;;;6.05;74.57;94891.38;2075720;28;20206;-62
2022/11/22 12:25:36;;;;;;;8.93;1.75;;;;;;;6.17;75.55;94895.06;2074797;28;20205;-62
2022/11/22 12:26:38;;;;;;;8.30;1.23;;;;;;;6.08;75.33;94894.72;2074170;28;20245;-63
2022/11/22 12:27:40;;;;;;;5.25;1.63;;;;;;;6.13;75.53;94884.94;2073510;28;20202;-63
2022/11/22 12:28:42;;;;;;;5.50;1.52;;;;;;;6.27;75.38;94894.56;2073382;28;20284;-63
2022/11/22 12:29:44;;;;;;;4.55;1.50;;;;;;;6.13;75.14;94892.72;2074755;28;20229;-63
2022/11/22 12:30:53;;;;;;;6.28;1.65;;;;;;;6.26;74.85;94898.91;2072434;28;20526;-62
2022/11/22 12:32:01;;;;;;;4.72;1.05;;;;;;;6.16;74.59;94890.81;2074955;28;21056;-62
2022/11/22 12:33:05;;;;;;;2.88;1.30;;;;;;;6.17;74.40;94902.00;2077195;28;20564;-61
2022/11/22 12:34:15;;;;;;;6.65;1.30;;;;;;;6.14;75.11;94891.81;2074471;28;20201;-62
2022/11/22 12:35:23;;;;;;;7.60;1.40;;;;;;;6.12;74.38;94896.22;2074815;28;20923;-61
2022/11/22 12:36:38;;;;;;;4.00;0.98;;;;;;;6.08;74.55;94892.97;2074824;28;20194;-62
2022/11/22 12:37:55;;;;;;;15.38;1.38;;;;;;;6.01;73.98;94886.47;2074371;28;20230;-63
2022/11/22 12:39:04;;;;;;;3.35;0.80;;;;;;;5.98;74.78;94884.00;2075032;28;20234;-62
2022/11/22 12:40:32;;;;;;;4.60;0.90;;;;;;;6.00;73.97;94887.38;2075548;28;20236;-61
2022/11/22 12:41:35;;;;;;;6.78;1.30;;;;;;;6.05;74.42;94881.00;2073832;28;20210;-61
2022/11/22 12:42:47;;;;;;;4.13;0.90;;;;;;;6.10;74.55;94885.13;2073658;28;20297;-61
2022/11/22 12:43:56;;;;;;;9.10;1.00;;;;;;;6.22;74.11;94881.84;2073912;28;20229;-62
2022/11/22 12:45:04;;;;;;;6.25;1.70;;;;;;;6.14;73.81;94887.44;2074690;28;20221;-61
2022/11/22 12:46:18;;;;;;;9.13;1.00;;;;;;;6.10;73.83;94873.00;2074126;28;20201;-61
2022/11/22 12:47:25;;;;;;;7.03;1.33;;;;;;;6.12;73.50;94885.84;2073862;28;20201;-62
2022/11/22 12:48:39;;;;;;;4.68;1.20;;;;;;;5.96;74.16;94870.31;2070954;28;20883;-62
2022/11/22 12:50:18;;;;;;;3.88;0.93;;;;;;;5.99;74.43;94881.38;2072527;28;20681;-62
2022/11/22 12:51:26;;;;;;;4.28;1.10;;;;;;;6.04;74.46;94888.88;2073743;28;20206;-62
2022/11/22 12:52:46;;;;;;;3.38;1.05;;;;;;;5.94;74.14;94890.25;2074913;28;20213;-63
2022/11/22 12:53:50;;;;;;;8.68;2.88;;;;;;;5.95;74.67;94876.41;2074021;28;20202;-62
2022/11/22 12:55:02;;;;;;;6.80;1.85;;;;;;;6.03;73.85;94882.00;2073542;28;20219;-62
2022/11/22 12:56:21;;;;;;;15.40;4.95;;;;;;;6.00;74.68;94874.41;2072845;28;20701;-61
2022/11/22 12:57:49;;;;;;;11.73;3.47;;;;;;;6.00;74.60;94877.00;2073309;28;20199;-62
2022/11/22 12:58:59;;;;;;;10.05;2.50;;;;;;;6.08;74.43;94874.00;2074641;28;20206;-62
2022/11/22 13:00:13;;;;;;;25.05;7.25;;;;;;;6.16;74.34;94875.25;2070472;28;20684;-63
2022/11/22 13:01:23;;;;;;;7.53;1.80;;;;;;;6.22;73.99;94876.66;2072583;28;20255;-62
2022/11/22 13:02:33;;;;;;;21.55;8.18;;;;;;;6.27;73.77;94881.59;2073600;28;20201;-62
2022/11/22 13:03:49;;;;;;;7.85;2.22;;;;;;;6.26;74.15;94874.72;2073912;28;20204;-62
2022/11/22 13:05:00;;;;;;;8.63;1.60;;;;;;;6.28;73.62;94875.50;2069929;28;20225;-62
2022/11/22 13:06:06;;;;;;;10.52;1.63;;;;;;;6.33;72.96;94870.88;2072485;28;20194;-62
2022/11/22 13:07:24;;;;;;;2.83;1.10;;;;;;;6.17;72.84;94876.06;2070439;28;20203;-61
2022/11/22 13:08:46;;;;;;;3.60;1.00;;;;;;;6.14;73.26;94873.66;2073902;28;20304;-62
2022/11/22 13:09:59;;;;;;;4.25;0.90;;;;;;;6.00;73.20;94875.25;2075876;28;20292;-61
2022/11/22 13:11:08;;;;;;;2.33;1.00;;;;;;;5.96;74.48;94865.13;2073747;28;20248;-62
2022/11/22 13:12:12;;;;;;;3.70;0.90;;;;;;;6.08;74.10;94874.81;2074132;28;20202;-62
2022/11/22 13:13:28;;;;;;;1.90;0.90;;;;;;;6.06;73.35;94881.88;2074423;28;20340;-62
2022/11/22 13:14:36;;;;;;;2.85;1.15;;;;;;;5.93;73.11;94892.03;2073026;28;20265;-60
2022/11/22 13:15:39;;;;;;;1.80;0.70;;;;;;;5.98;73.00;94871.91;2075625;28;20868;-62
2022/11/22 13:16:41;;;;;;;7.60;1.00;;;;;;;5.93;73.04;94863.53;2071641;28;20437;-61
2022/11/22 13:17:42;;;;;;;3.03;0.68;;;;;;;5.83;73.49;94862.38;2082208;28;20220;-62
2022/11/22 13:18:50;;;;;;;4.55;1.00;;;;;;;5.86;73.65;94865.59;2081321;28;20245;-61
2022/11/22 13:19:55;;;;;;;6.63;2.00;;;;;;;6.00;73.68;94884.78;2082422;28;20317;-62
2022/11/22 13:21:39;;;;;;;9.07;3.03;;;;;;;6.02;73.21;94878.59;2079469;28;20233;-62
2022/11/22 13:22:58;;;;;;;4.93;1.10;;;;;;;5.94;73.84;94872.97;2070855;28;20221;-62
2022/11/22 13:24:11;;;;;;;10.63;4.53;;;;;;;5.87;73.22;94879.41;2074158;28;20283;-62
2022/11/22 13:25:51;;;;;;;10.68;5.22;;;;;;;5.85;73.14;94882.09;2074081;28;20208;-62
2022/11/22 13:27:12;;;;;;;6.47;1.20;;;;;;;5.92;73.74;94877.41;2067442;28;20241;-62
2022/11/22 13:28:24;;;;;;;3.55;1.00;;;;;;;5.94;72.84;94891.13;2068959;28;20198;-61
2022/11/22 13:29:29;;;;;;;1.48;0.70;;;;;;;5.96;73.28;94891.84;2068366;28;20726;-62
2022/11/22 13:30:32;;;;;;;3.33;0.82;;;;;;;5.94;73.54;94877.31;2069918;28;20207;-62
2022/11/22 13:31:34;;;;;;;4.60;0.80;;;;;;;5.86;73.31;94890.69;2067511;28;20249;-61
2022/11/22 13:32:41;;;;;;;3.80;0.82;;;;;;;5.80;73.56;94865.09;2067939;28;20693;-62
2022/11/22 13:33:56;;;;;;;4.57;0.80;;;;;;;5.91;73.56;94888.69;2068089;28;20206;-62
2022/11/22 13:35:10;;;;;;;3.30;0.82;;;;;;;5.94;73.30;94883.34;2068648;28;20222;-62
2022/11/22 13:36:36;;;;;;;3.83;1.08;;;;;;;5.89;73.52;94875.81;2067971;28;20344;-61
2022/11/22 13:37:41;;;;;;;3.28;0.90;;;;;;;5.98;73.64;94886.59;2066793;28;20215;-62
2022/11/22 13:38:43;;;;;;;2.10;0.80;;;;;;;6.02;73.68;94888.97;2065123;28;20206;-61
2022/11/22 13:39:47;;;;;;;1.60;0.80;;;;;;;5.96;73.04;94886.66;2065033;28;20230;-62
2022/11/22 13:40:50;;;;;;;6.97;1.00;;;;;;;6.02;74.10;94898.50;2068974;28;20339;-62
2022/11/22 13:42:03;;;;;;;3.72;1.02;;;;;;;6.07;73.84;94890.47;2067864;28;20253;-62
2022/11/22 13:43:10;;;;;;;2.30;0.80;;;;;;;6.07;73.68;94893.91;2066986;28;20363;-61
2022/11/22 13:44:21;;;;;;;3.33;0.90;;;;;;;6.06;73.59;94894.81;2067382;28;20283;-62
2022/11/22 13:45:24;;;;;;;3.15;0.93;;;;;;;5.69;73.79;94869.13;2070529;28;20325;-62
2022/11/22 13:47:02;;;;;;;10.43;1.25;;;;;;;5.89;73.76;94893.94;2068706;28;20654;-61
2022/11/22 13:48:03;;;;;;;3.65;1.10;;;;;;;5.97;74.37;94897.88;2067362;28;20587;-61
2022/11/22 13:49:14;;;;;;;9.35;1.00;;;;;;;5.88;74.00;94889.69;2067713;28;20206;-62
2022/11/22 13:50:33;;;;;;;4.00;1.35;;;;;;;5.94;74.61;94896.31;2074671;28;20193;-62
2022/11/22 13:51:53;;;;;;;5.70;0.98;;;;;;;5.86;74.38;94877.72;2072767;28;20292;-62
2022/11/22 13:52:54;;;;;;;4.60;1.50;;;;;;;5.85;74.50;94876.06;2069994;28;20726;-61
2022/11/22 13:54:33;;;;;;;3.03;1.00;;;;;;;6.01;74.27;94889.88;2068378;28;20294;-61
2022/11/22 13:55:36;;;;;;;3.35;1.05;;;;;;;5.93;74.15;94876.50;2067330;28;20251;-61
2022/11/22 13:56:43;;;;;;;2.20;1.00;;;;;;;5.97;74.42;94884.94;2068707;28;20218;-65
2022/11/22 15:48:32;;;;;;;42.87;16.97;;;;;;;5.02;79.35;94959.69;2062650;27;1289767;-62
2022/11/22 15:49:58;;;;;;;23.30;9.43;;;;;;;4.97;79.68;94945.31;2090578;28;20220;-62
